sensor_id;sensor_type;location;lat;lon;timestamp;P1;durP1;ratioP1;P2;durP2;ratioP2
17965;SDS011;9108;53.204;10.424;2023-09-19T00:01:45;5.55;;;1.80;;
17965;SDS011;9108;53.204;10.424;2023-09-19T00:04:14;3.85;;;1.50;;
17965;SDS011;9108;53.204;10.424;2023-09-19T00:06:41;2.97;;;1.50;;
17965;SDS011;9108;53.204;10.424;2023-09-19T00:09:09;5.35;;;1.90;;
17965;SDS011;9108;53.204;10.424;2023-09-19T00:11:36;4.03;;;1.90;;
17965;SDS011;9108;53.204;10.424;2023-09-19T00:14:03;4.47;;;1.70;;
17965;SDS011;9108;53.204;10.424;2023-09-19T00:16:33;3.53;;;1.70;;
17965;SDS011;9108;53.204;10.424;2023-09-19T00:19:01;5.13;;;1.60;;
17965;SDS011;9108;53.204;10.424;2023-09-19T00:21:34;4.43;;;1.80;;
17965;SDS011;9108;53.204;10.424;2023-09-19T00:24:03;4.78;;;1.70;;
17965;SDS011;9108;53.204;10.424;2023-09-19T00:26:31;5.32;;;1.90;;
17965;SDS011;9108;53.204;10.424;2023-09-19T00:28:59;5.03;;;1.70;;
17965;SDS011;9108;53.204;10.424;2023-09-19T00:31:31;4.43;;;1.80;;
17965;SDS011;9108;53.204;10.424;2023-09-19T00:33:58;4.25;;;1.65;;
17965;SDS011;9108;53.204;10.424;2023-09-19T00:36:29;4.35;;;2.10;;
17965;SDS011;9108;53.204;10.424;2023-09-19T00:38:57;5.25;;;2.10;;
17965;SDS011;9108;53.204;10.424;2023-09-19T00:41:24;5.57;;;2.00;;
17965;SDS011;9108;53.204;10.424;2023-09-19T00:43:55;4.47;;;1.73;;
17965;SDS011;9108;53.204;10.424;2023-09-19T00:46:22;7.20;;;1.97;;
17965;SDS011;9108;53.204;10.424;2023-09-19T00:48:50;4.72;;;2.10;;
17965;SDS011;9108;53.204;10.424;2023-09-19T00:51:18;6.03;;;2.00;;
17965;SDS011;9108;53.204;10.424;2023-09-19T00:53:47;5.35;;;2.00;;
17965;SDS011;9108;53.204;10.424;2023-09-19T00:56:15;5.80;;;2.10;;
17965;SDS011;9108;53.204;10.424;2023-09-19T00:58:43;3.72;;;2.00;;
17965;SDS011;9108;53.204;10.424;2023-09-19T01:01:11;5.25;;;2.10;;
17965;SDS011;9108;53.204;10.424;2023-09-19T01:03:40;5.03;;;2.42;;
17965;SDS011;9108;53.204;10.424;2023-09-19T01:06:07;5.18;;;2.10;;
17965;SDS011;9108;53.204;10.424;2023-09-19T01:08:34;4.38;;;2.13;;
17965;SDS011;9108;53.204;10.424;2023-09-19T01:11:04;5.38;;;2.30;;
17965;SDS011;9108;53.204;10.424;2023-09-19T01:13:40;5.53;;;2.47;;
17965;SDS011;9108;53.204;10.424;2023-09-19T01:16:11;6.65;;;2.50;;
17965;SDS011;9108;53.204;10.424;2023-09-19T01:18:43;5.40;;;2.35;;
17965;SDS011;9108;53.204;10.424;2023-09-19T01:21:15;5.60;;;2.50;;
17965;SDS011;9108;53.204;10.424;2023-09-19T01:23:52;6.18;;;2.78;;
17965;SDS011;9108;53.204;10.424;2023-09-19T01:26:29;8.88;;;2.80;;
17965;SDS011;9108;53.204;10.424;2023-09-19T01:29:06;6.00;;;2.65;;
17965;SDS011;9108;53.204;10.424;2023-09-19T01:31:41;7.20;;;2.70;;
17965;SDS011;9108;53.204;10.424;2023-09-19T01:34:09;7.00;;;2.70;;
17965;SDS011;9108;53.204;10.424;2023-09-19T01:36:37;6.70;;;3.03;;
17965;SDS011;9108;53.204;10.424;2023-09-19T01:39:04;8.53;;;3.10;;
17965;SDS011;9108;53.204;10.424;2023-09-19T01:41:41;8.82;;;3.50;;
17965;SDS011;9108;53.204;10.424;2023-09-19T01:44:11;9.90;;;3.67;;
17965;SDS011;9108;53.204;10.424;2023-09-19T01:46:42;9.63;;;3.60;;
17965;SDS011;9108;53.204;10.424;2023-09-19T01:49:13;8.73;;;3.50;;
17965;SDS011;9108;53.204;10.424;2023-09-19T01:51:46;7.97;;;3.80;;
17965;SDS011;9108;53.204;10.424;2023-09-19T01:54:16;8.27;;;3.53;;
17965;SDS011;9108;53.204;10.424;2023-09-19T01:56:47;8.90;;;3.38;;
17965;SDS011;9108;53.204;10.424;2023-09-19T01:59:16;8.23;;;3.40;;
17965;SDS011;9108;53.204;10.424;2023-09-19T02:01:45;8.37;;;3.50;;
17965;SDS011;9108;53.204;10.424;2023-09-19T02:04:13;7.78;;;3.33;;
17965;SDS011;9108;53.204;10.424;2023-09-19T02:06:40;10.70;;;3.60;;
17965;SDS011;9108;53.204;10.424;2023-09-19T02:09:07;6.93;;;3.13;;
17965;SDS011;9108;53.204;10.424;2023-09-19T02:11:35;7.53;;;3.40;;
17965;SDS011;9108;53.204;10.424;2023-09-19T02:14:03;6.28;;;3.42;;
17965;SDS011;9108;53.204;10.424;2023-09-19T02:16:33;7.38;;;2.90;;
17965;SDS011;9108;53.204;10.424;2023-09-19T02:19:02;9.10;;;3.47;;
17965;SDS011;9108;53.204;10.424;2023-09-19T02:21:30;8.00;;;3.38;;
17965;SDS011;9108;53.204;10.424;2023-09-19T02:23:57;8.20;;;3.30;;
17965;SDS011;9108;53.204;10.424;2023-09-19T02:26:25;9.00;;;3.50;;
17965;SDS011;9108;53.204;10.424;2023-09-19T02:28:52;8.20;;;3.53;;
17965;SDS011;9108;53.204;10.424;2023-09-19T02:31:19;8.98;;;3.65;;
17965;SDS011;9108;53.204;10.424;2023-09-19T02:33:46;8.15;;;3.40;;
17965;SDS011;9108;53.204;10.424;2023-09-19T02:36:15;8.05;;;3.20;;
17965;SDS011;9108;53.204;10.424;2023-09-19T02:38:43;10.30;;;3.70;;
17965;SDS011;9108;53.204;10.424;2023-09-19T02:41:11;12.17;;;3.97;;
17965;SDS011;9108;53.204;10.424;2023-09-19T02:43:38;7.65;;;3.20;;
17965;SDS011;9108;53.204;10.424;2023-09-19T02:46:05;9.15;;;3.17;;
17965;SDS011;9108;53.204;10.424;2023-09-19T02:48:33;9.70;;;3.25;;
17965;SDS011;9108;53.204;10.424;2023-09-19T02:51:01;8.23;;;3.33;;
17965;SDS011;9108;53.204;10.424;2023-09-19T02:53:30;8.40;;;3.22;;
17965;SDS011;9108;53.204;10.424;2023-09-19T02:55:57;8.27;;;3.28;;
17965;SDS011;9108;53.204;10.424;2023-09-19T02:58:26;8.43;;;3.13;;
17965;SDS011;9108;53.204;10.424;2023-09-19T03:00:55;6.70;;;3.00;;
17965;SDS011;9108;53.204;10.424;2023-09-19T03:03:23;7.70;;;2.85;;
17965;SDS011;9108;53.204;10.424;2023-09-19T03:05:50;11.00;;;3.33;;
17965;SDS011;9108;53.204;10.424;2023-09-19T03:08:18;10.30;;;3.28;;
17965;SDS011;9108;53.204;10.424;2023-09-19T03:10:47;13.45;;;3.47;;
17965;SDS011;9108;53.204;10.424;2023-09-19T03:13:14;8.73;;;3.20;;
17965;SDS011;9108;53.204;10.424;2023-09-19T03:15:41;7.53;;;2.90;;
17965;SDS011;9108;53.204;10.424;2023-09-19T03:18:11;9.80;;;3.17;;
17965;SDS011;9108;53.204;10.424;2023-09-19T03:20:38;9.07;;;3.17;;
17965;SDS011;9108;53.204;10.424;2023-09-19T03:23:06;8.68;;;2.80;;
17965;SDS011;9108;53.204;10.424;2023-09-19T03:25:33;8.25;;;2.35;;
17965;SDS011;9108;53.204;10.424;2023-09-19T03:28:02;5.45;;;2.00;;
17965;SDS011;9108;53.204;10.424;2023-09-19T03:30:31;4.10;;;1.60;;
17965;SDS011;9108;53.204;10.424;2023-09-19T03:32:59;5.88;;;1.70;;
17965;SDS011;9108;53.204;10.424;2023-09-19T03:35:26;4.10;;;1.60;;
17965;SDS011;9108;53.204;10.424;2023-09-19T03:37:53;6.18;;;1.90;;
17965;SDS011;9108;53.204;10.424;2023-09-19T03:40:21;4.90;;;1.60;;
17965;SDS011;9108;53.204;10.424;2023-09-19T03:42:48;4.75;;;1.52;;
17965;SDS011;9108;53.204;10.424;2023-09-19T03:45:17;6.70;;;1.73;;
17965;SDS011;9108;53.204;10.424;2023-09-19T03:47:44;5.78;;;1.85;;
17965;SDS011;9108;53.204;10.424;2023-09-19T03:50:12;5.63;;;1.80;;
17965;SDS011;9108;53.204;10.424;2023-09-19T03:52:43;6.70;;;1.80;;
17965;SDS011;9108;53.204;10.424;2023-09-19T03:55:10;8.75;;;2.42;;
17965;SDS011;9108;53.204;10.424;2023-09-19T03:57:37;6.88;;;2.10;;
17965;SDS011;9108;53.204;10.424;2023-09-19T04:00:04;6.20;;;2.00;;
17965;SDS011;9108;53.204;10.424;2023-09-19T04:02:37;7.00;;;2.42;;
17965;SDS011;9108;53.204;10.424;2023-09-19T04:05:05;8.25;;;2.50;;
17965;SDS011;9108;53.204;10.424;2023-09-19T04:07:32;8.70;;;2.58;;
17965;SDS011;9108;53.204;10.424;2023-09-19T04:09:59;9.65;;;2.72;;
17965;SDS011;9108;53.204;10.424;2023-09-19T04:12:27;7.30;;;2.40;;
17965;SDS011;9108;53.204;10.424;2023-09-19T04:14:54;9.52;;;2.58;;
17965;SDS011;9108;53.204;10.424;2023-09-19T04:17:21;9.38;;;2.25;;
17965;SDS011;9108;53.204;10.424;2023-09-19T04:19:50;8.70;;;2.28;;
17965;SDS011;9108;53.204;10.424;2023-09-19T04:22:17;8.67;;;2.40;;
17965;SDS011;9108;53.204;10.424;2023-09-19T04:24:44;6.82;;;1.95;;
17965;SDS011;9108;53.204;10.424;2023-09-19T04:27:11;6.60;;;1.90;;
17965;SDS011;9108;53.204;10.424;2023-09-19T04:29:39;7.43;;;1.97;;
17965;SDS011;9108;53.204;10.424;2023-09-19T04:32:07;6.65;;;1.60;;
17965;SDS011;9108;53.204;10.424;2023-09-19T04:34:34;7.70;;;2.15;;
17965;SDS011;9108;53.204;10.424;2023-09-19T04:37:04;8.48;;;1.90;;
17965;SDS011;9108;53.204;10.424;2023-09-19T04:39:31;8.48;;;1.90;;
17965;SDS011;9108;53.204;10.424;2023-09-19T04:41:59;9.48;;;1.92;;
17965;SDS011;9108;53.204;10.424;2023-09-19T04:44:26;7.20;;;1.85;;
17965;SDS011;9108;53.204;10.424;2023-09-19T04:46:54;7.10;;;1.70;;
17965;SDS011;9108;53.204;10.424;2023-09-19T04:49:21;5.60;;;1.73;;
17965;SDS011;9108;53.204;10.424;2023-09-19T04:51:48;6.28;;;1.77;;
17965;SDS011;9108;53.204;10.424;2023-09-19T04:54:16;8.93;;;2.17;;
17965;SDS011;9108;53.204;10.424;2023-09-19T04:56:43;10.25;;;1.70;;
17965;SDS011;9108;53.204;10.424;2023-09-19T04:59:10;9.32;;;1.90;;
17965;SDS011;9108;53.204;10.424;2023-09-19T05:01:38;9.70;;;2.05;;
17965;SDS011;9108;53.204;10.424;2023-09-19T05:04:05;8.98;;;1.85;;
17965;SDS011;9108;53.204;10.424;2023-09-19T05:06:32;9.57;;;1.90;;
17965;SDS011;9108;53.204;10.424;2023-09-19T05:09:00;7.27;;;1.90;;
17965;SDS011;9108;53.204;10.424;2023-09-19T05:11:31;11.93;;;1.92;;
17965;SDS011;9108;53.204;10.424;2023-09-19T05:13:59;9.80;;;2.13;;
17965;SDS011;9108;53.204;10.424;2023-09-19T05:16:28;11.35;;;2.13;;
17965;SDS011;9108;53.204;10.424;2023-09-19T05:18:56;10.55;;;2.00;;
17965;SDS011;9108;53.204;10.424;2023-09-19T05:21:25;8.25;;;1.90;;
17965;SDS011;9108;53.204;10.424;2023-09-19T05:23:53;11.52;;;2.20;;
17965;SDS011;9108;53.204;10.424;2023-09-19T05:26:21;7.43;;;2.00;;
17965;SDS011;9108;53.204;10.424;2023-09-19T05:28:49;10.73;;;2.20;;
17965;SDS011;9108;53.204;10.424;2023-09-19T05:31:17;11.30;;;2.10;;
17965;SDS011;9108;53.204;10.424;2023-09-19T05:33:45;8.80;;;2.22;;
17965;SDS011;9108;53.204;10.424;2023-09-19T05:36:12;9.50;;;2.20;;
17965;SDS011;9108;53.204;10.424;2023-09-19T05:38:41;9.75;;;2.10;;
17965;SDS011;9108;53.204;10.424;2023-09-19T05:41:09;8.70;;;2.08;;
17965;SDS011;9108;53.204;10.424;2023-09-19T05:43:38;8.47;;;2.43;;
17965;SDS011;9108;53.204;10.424;2023-09-19T05:46:07;8.32;;;2.15;;
17965;SDS011;9108;53.204;10.424;2023-09-19T05:48:34;9.23;;;2.40;;
17965;SDS011;9108;53.204;10.424;2023-09-19T05:51:02;10.23;;;2.20;;
17965;SDS011;9108;53.204;10.424;2023-09-19T05:53:29;9.98;;;2.40;;
17965;SDS011;9108;53.204;10.424;2023-09-19T05:55:56;10.63;;;2.60;;
17965;SDS011;9108;53.204;10.424;2023-09-19T05:58:26;10.68;;;2.60;;
17965;SDS011;9108;53.204;10.424;2023-09-19T06:00:53;13.02;;;2.50;;
17965;SDS011;9108;53.204;10.424;2023-09-19T06:03:22;8.32;;;2.05;;
17965;SDS011;9108;53.204;10.424;2023-09-19T06:05:49;10.03;;;2.27;;
17965;SDS011;9108;53.204;10.424;2023-09-19T06:08:18;11.27;;;2.40;;
17965;SDS011;9108;53.204;10.424;2023-09-19T06:10:45;9.73;;;2.20;;
17965;SDS011;9108;53.204;10.424;2023-09-19T06:13:14;9.07;;;2.20;;
17965;SDS011;9108;53.204;10.424;2023-09-19T06:15:41;11.38;;;2.33;;
17965;SDS011;9108;53.204;10.424;2023-09-19T06:18:10;11.05;;;2.13;;
17965;SDS011;9108;53.204;10.424;2023-09-19T06:20:41;11.10;;;1.90;;
17965;SDS011;9108;53.204;10.424;2023-09-19T06:23:09;10.25;;;2.10;;
17965;SDS011;9108;53.204;10.424;2023-09-19T06:25:36;7.65;;;2.05;;
17965;SDS011;9108;53.204;10.424;2023-09-19T06:28:04;7.43;;;2.00;;
17965;SDS011;9108;53.204;10.424;2023-09-19T06:30:33;9.00;;;2.20;;
17965;SDS011;9108;53.204;10.424;2023-09-19T06:33:00;13.10;;;2.35;;
17965;SDS011;9108;53.204;10.424;2023-09-19T06:35:30;11.00;;;2.15;;
17965;SDS011;9108;53.204;10.424;2023-09-19T06:38:01;7.82;;;1.83;;
17965;SDS011;9108;53.204;10.424;2023-09-19T06:40:29;8.25;;;1.85;;
17965;SDS011;9108;53.204;10.424;2023-09-19T06:42:56;10.38;;;2.10;;
17965;SDS011;9108;53.204;10.424;2023-09-19T06:45:27;9.10;;;2.10;;
17965;SDS011;9108;53.204;10.424;2023-09-19T06:47:54;9.90;;;1.87;;
17965;SDS011;9108;53.204;10.424;2023-09-19T06:50:22;11.90;;;2.10;;
17965;SDS011;9108;53.204;10.424;2023-09-19T06:52:50;8.93;;;2.40;;
17965;SDS011;9108;53.204;10.424;2023-09-19T06:55:20;9.73;;;2.25;;
17965;SDS011;9108;53.204;10.424;2023-09-19T06:57:50;10.98;;;2.13;;
17965;SDS011;9108;53.204;10.424;2023-09-19T07:00:19;11.32;;;2.13;;
17965;SDS011;9108;53.204;10.424;2023-09-19T07:02:54;11.07;;;2.17;;
17965;SDS011;9108;53.204;10.424;2023-09-19T07:05:22;8.70;;;2.10;;
17965;SDS011;9108;53.204;10.424;2023-09-19T07:07:49;13.32;;;2.50;;
17965;SDS011;9108;53.204;10.424;2023-09-19T07:10:16;7.65;;;1.65;;
17965;SDS011;9108;53.204;10.424;2023-09-19T07:12:46;8.32;;;2.25;;
17965;SDS011;9108;53.204;10.424;2023-09-19T07:15:13;10.77;;;2.40;;
17965;SDS011;9108;53.204;10.424;2023-09-19T07:17:40;10.20;;;2.13;;
17965;SDS011;9108;53.204;10.424;2023-09-19T07:20:08;10.63;;;2.17;;
17965;SDS011;9108;53.204;10.424;2023-09-19T07:22:41;11.27;;;2.40;;
17965;SDS011;9108;53.204;10.424;2023-09-19T07:25:08;9.75;;;2.08;;
17965;SDS011;9108;53.204;10.424;2023-09-19T07:27:35;10.77;;;2.20;;
17965;SDS011;9108;53.204;10.424;2023-09-19T07:30:04;11.07;;;2.20;;
17965;SDS011;9108;53.204;10.424;2023-09-19T07:32:33;13.68;;;2.67;;
17965;SDS011;9108;53.204;10.424;2023-09-19T07:35:01;9.95;;;2.70;;
17965;SDS011;9108;53.204;10.424;2023-09-19T07:37:29;15.75;;;2.90;;
17965;SDS011;9108;53.204;10.424;2023-09-19T07:39:56;11.45;;;2.83;;
17965;SDS011;9108;53.204;10.424;2023-09-19T07:42:23;12.05;;;2.83;;
17965;SDS011;9108;53.204;10.424;2023-09-19T07:44:50;10.95;;;2.80;;
17965;SDS011;9108;53.204;10.424;2023-09-19T07:47:20;10.40;;;2.50;;
17965;SDS011;9108;53.204;10.424;2023-09-19T07:49:47;11.20;;;2.92;;
17965;SDS011;9108;53.204;10.424;2023-09-19T07:52:14;9.93;;;2.60;;
17965;SDS011;9108;53.204;10.424;2023-09-19T07:54:41;11.77;;;2.80;;
17965;SDS011;9108;53.204;10.424;2023-09-19T07:57:09;12.60;;;2.72;;
17965;SDS011;9108;53.204;10.424;2023-09-19T07:59:37;11.57;;;2.67;;
17965;SDS011;9108;53.204;10.424;2023-09-19T08:02:07;11.55;;;2.75;;
17965;SDS011;9108;53.204;10.424;2023-09-19T08:04:41;11.07;;;2.63;;
17965;SDS011;9108;53.204;10.424;2023-09-19T08:07:11;12.00;;;2.70;;
17965;SDS011;9108;53.204;10.424;2023-09-19T08:09:38;12.30;;;2.90;;
17965;SDS011;9108;53.204;10.424;2023-09-19T08:12:05;12.13;;;2.78;;
17965;SDS011;9108;53.204;10.424;2023-09-19T08:14:35;12.95;;;2.70;;
17965;SDS011;9108;53.204;10.424;2023-09-19T08:17:02;13.93;;;2.72;;
17965;SDS011;9108;53.204;10.424;2023-09-19T08:19:30;9.13;;;1.95;;
17965;SDS011;9108;53.204;10.424;2023-09-19T08:21:59;8.27;;;2.10;;
17965;SDS011;9108;53.204;10.424;2023-09-19T08:24:26;8.15;;;1.98;;
17965;SDS011;9108;53.204;10.424;2023-09-19T08:26:54;9.10;;;1.90;;
17965;SDS011;9108;53.204;10.424;2023-09-19T08:29:21;9.70;;;2.00;;
17965;SDS011;9108;53.204;10.424;2023-09-19T08:31:52;11.48;;;2.03;;
17965;SDS011;9108;53.204;10.424;2023-09-19T08:34:20;11.13;;;2.10;;
17965;SDS011;9108;53.204;10.424;2023-09-19T08:36:48;9.05;;;2.00;;
17965;SDS011;9108;53.204;10.424;2023-09-19T08:39:16;10.38;;;2.05;;
17965;SDS011;9108;53.204;10.424;2023-09-19T08:41:44;10.70;;;2.00;;
17965;SDS011;9108;53.204;10.424;2023-09-19T08:44:11;11.20;;;2.33;;
17965;SDS011;9108;53.204;10.424;2023-09-19T08:46:38;10.85;;;1.92;;
17965;SDS011;9108;53.204;10.424;2023-09-19T08:49:08;11.75;;;2.10;;
17965;SDS011;9108;53.204;10.424;2023-09-19T08:51:41;9.18;;;1.85;;
17965;SDS011;9108;53.204;10.424;2023-09-19T08:54:12;7.75;;;1.95;;
17965;SDS011;9108;53.204;10.424;2023-09-19T08:56:46;10.82;;;2.00;;
17965;SDS011;9108;53.204;10.424;2023-09-19T08:59:13;7.75;;;1.75;;
17965;SDS011;9108;53.204;10.424;2023-09-19T09:01:41;10.00;;;1.83;;
17965;SDS011;9108;53.204;10.424;2023-09-19T09:04:09;8.38;;;2.15;;
17965;SDS011;9108;53.204;10.424;2023-09-19T09:06:38;10.70;;;1.83;;
17965;SDS011;9108;53.204;10.424;2023-09-19T09:09:05;9.15;;;1.70;;
17965;SDS011;9108;53.204;10.424;2023-09-19T09:11:34;7.65;;;1.70;;
17965;SDS011;9108;53.204;10.424;2023-09-19T09:14:06;7.75;;;1.70;;
17965;SDS011;9108;53.204;10.424;2023-09-19T09:16:33;6.87;;;1.97;;
17965;SDS011;9108;53.204;10.424;2023-09-19T09:19:00;10.75;;;2.00;;
17965;SDS011;9108;53.204;10.424;2023-09-19T09:21:27;8.13;;;1.87;;
17965;SDS011;9108;53.204;10.424;2023-09-19T09:23:54;7.72;;;1.80;;
17965;SDS011;9108;53.204;10.424;2023-09-19T09:29:11;11.75;;;1.75;;
17965;SDS011;9108;53.204;10.424;2023-09-19T09:31:38;6.03;;;1.60;;
17965;SDS011;9108;53.204;10.424;2023-09-19T09:34:06;8.73;;;1.92;;
17965;SDS011;9108;53.204;10.424;2023-09-19T09:36:34;10.70;;;2.10;;
17965;SDS011;9108;53.204;10.424;2023-09-19T09:39:02;8.68;;;1.70;;
17965;SDS011;9108;53.204;10.424;2023-09-19T09:41:41;11.00;;;1.95;;
17965;SDS011;9108;53.204;10.424;2023-09-19T09:44:13;6.93;;;1.80;;
17965;SDS011;9108;53.204;10.424;2023-09-19T09:46:42;7.53;;;1.77;;
17965;SDS011;9108;53.204;10.424;2023-09-19T09:49:47;11.88;;;2.13;;
17965;SDS011;9108;53.204;10.424;2023-09-19T09:52:19;7.55;;;1.65;;
17965;SDS011;9108;53.204;10.424;2023-09-19T09:54:58;10.00;;;1.85;;
17965;SDS011;9108;53.204;10.424;2023-09-19T09:57:26;8.32;;;1.70;;
17965;SDS011;9108;53.204;10.424;2023-09-19T09:59:56;7.50;;;1.70;;
17965;SDS011;9108;53.204;10.424;2023-09-19T10:02:40;7.43;;;1.75;;
17965;SDS011;9108;53.204;10.424;2023-09-19T10:05:11;8.13;;;1.70;;
17965;SDS011;9108;53.204;10.424;2023-09-19T10:07:46;6.50;;;1.70;;
17965;SDS011;9108;53.204;10.424;2023-09-19T10:10:14;8.90;;;1.70;;
17965;SDS011;9108;53.204;10.424;2023-09-19T10:12:45;7.72;;;1.60;;
17965;SDS011;9108;53.204;10.424;2023-09-19T10:15:14;7.80;;;1.63;;
17965;SDS011;9108;53.204;10.424;2023-09-19T10:17:43;10.77;;;1.90;;
17965;SDS011;9108;53.204;10.424;2023-09-19T10:20:14;8.82;;;1.80;;
17965;SDS011;9108;53.204;10.424;2023-09-19T10:23:00;6.80;;;1.60;;
17965;SDS011;9108;53.204;10.424;2023-09-19T10:25:28;8.02;;;1.67;;
17965;SDS011;9108;53.204;10.424;2023-09-19T10:27:55;10.10;;;1.80;;
17965;SDS011;9108;53.204;10.424;2023-09-19T10:30:25;8.30;;;1.83;;
17965;SDS011;9108;53.204;10.424;2023-09-19T10:32:56;10.13;;;1.85;;
17965;SDS011;9108;53.204;10.424;2023-09-19T10:35:24;6.72;;;1.60;;
17965;SDS011;9108;53.204;10.424;2023-09-19T10:37:53;9.57;;;1.80;;
17965;SDS011;9108;53.204;10.424;2023-09-19T10:40:21;11.30;;;1.60;;
17965;SDS011;9108;53.204;10.424;2023-09-19T10:42:55;7.60;;;1.85;;
17965;SDS011;9108;53.204;10.424;2023-09-19T10:45:26;9.80;;;1.80;;
17965;SDS011;9108;53.204;10.424;2023-09-19T10:47:54;9.87;;;1.60;;
17965;SDS011;9108;53.204;10.424;2023-09-19T10:50:22;7.22;;;1.60;;
17965;SDS011;9108;53.204;10.424;2023-09-19T10:52:50;8.27;;;1.45;;
17965;SDS011;9108;53.204;10.424;2023-09-19T10:55:23;6.90;;;1.50;;
17965;SDS011;9108;53.204;10.424;2023-09-19T10:57:53;8.95;;;2.00;;
17965;SDS011;9108;53.204;10.424;2023-09-19T11:00:22;8.90;;;1.90;;
17965;SDS011;9108;53.204;10.424;2023-09-19T11:05:41;10.18;;;1.60;;
17965;SDS011;9108;53.204;10.424;2023-09-19T11:08:09;10.65;;;1.80;;
17965;SDS011;9108;53.204;10.424;2023-09-19T11:10:45;6.57;;;1.40;;
17965;SDS011;9108;53.204;10.424;2023-09-19T11:13:23;7.75;;;1.52;;
17965;SDS011;9108;53.204;10.424;2023-09-19T11:18:54;6.93;;;1.50;;
17965;SDS011;9108;53.204;10.424;2023-09-19T11:24:28;10.35;;;1.50;;
17965;SDS011;9108;53.204;10.424;2023-09-19T11:27:10;8.57;;;1.60;;
17965;SDS011;9108;53.204;10.424;2023-09-19T11:29:38;7.20;;;1.50;;
17965;SDS011;9108;53.204;10.424;2023-09-19T11:32:06;6.43;;;1.60;;
17965;SDS011;9108;53.204;10.424;2023-09-19T11:34:38;8.90;;;1.80;;
17965;SDS011;9108;53.204;10.424;2023-09-19T11:40:06;8.73;;;1.70;;
17965;SDS011;9108;53.204;10.424;2023-09-19T11:42:41;8.23;;;1.60;;
17965;SDS011;9108;53.204;10.424;2023-09-19T11:45:09;8.77;;;1.50;;
17965;SDS011;9108;53.204;10.424;2023-09-19T11:47:56;9.50;;;1.70;;
17965;SDS011;9108;53.204;10.424;2023-09-19T11:50:23;7.75;;;1.30;;
17965;SDS011;9108;53.204;10.424;2023-09-19T11:52:51;8.70;;;1.80;;
17965;SDS011;9108;53.204;10.424;2023-09-19T11:55:21;7.93;;;1.77;;
17965;SDS011;9108;53.204;10.424;2023-09-19T11:57:48;8.77;;;1.70;;
17965;SDS011;9108;53.204;10.424;2023-09-19T12:00:17;8.87;;;1.83;;
17965;SDS011;9108;53.204;10.424;2023-09-19T12:02:46;8.98;;;1.90;;
17965;SDS011;9108;53.204;10.424;2023-09-19T12:05:13;9.20;;;1.80;;
17965;SDS011;9108;53.204;10.424;2023-09-19T12:07:42;8.88;;;1.83;;
17965;SDS011;9108;53.204;10.424;2023-09-19T12:10:12;10.05;;;1.90;;
17965;SDS011;9108;53.204;10.424;2023-09-19T12:12:45;9.63;;;1.90;;
17965;SDS011;9108;53.204;10.424;2023-09-19T12:15:14;7.38;;;1.70;;
17965;SDS011;9108;53.204;10.424;2023-09-19T12:17:41;7.53;;;1.60;;
17965;SDS011;9108;53.204;10.424;2023-09-19T12:20:09;5.05;;;1.50;;
17965;SDS011;9108;53.204;10.424;2023-09-19T12:22:41;6.53;;;1.70;;
17965;SDS011;9108;53.204;10.424;2023-09-19T12:25:08;8.60;;;2.10;;
17965;SDS011;9108;53.204;10.424;2023-09-19T12:27:41;6.47;;;1.80;;
17965;SDS011;9108;53.204;10.424;2023-09-19T12:30:11;10.70;;;2.03;;
17965;SDS011;9108;53.204;10.424;2023-09-19T12:32:39;9.90;;;2.00;;
17965;SDS011;9108;53.204;10.424;2023-09-19T12:35:07;9.97;;;2.13;;
17965;SDS011;9108;53.204;10.424;2023-09-19T12:37:36;7.25;;;2.00;;
17965;SDS011;9108;53.204;10.424;2023-09-19T12:40:04;10.20;;;2.20;;
17965;SDS011;9108;53.204;10.424;2023-09-19T12:42:42;7.35;;;1.85;;
17965;SDS011;9108;53.204;10.424;2023-09-19T12:45:11;6.65;;;1.92;;
17965;SDS011;9108;53.204;10.424;2023-09-19T12:47:40;8.85;;;1.90;;
17965;SDS011;9108;53.204;10.424;2023-09-19T12:50:09;10.55;;;2.08;;
17965;SDS011;9108;53.204;10.424;2023-09-19T12:52:42;8.18;;;1.90;;
17965;SDS011;9108;53.204;10.424;2023-09-19T12:55:19;8.30;;;1.98;;
17965;SDS011;9108;53.204;10.424;2023-09-19T12:57:57;9.77;;;1.90;;
17965;SDS011;9108;53.204;10.424;2023-09-19T13:00:32;10.15;;;2.05;;
17965;SDS011;9108;53.204;10.424;2023-09-19T13:03:11;10.57;;;2.05;;
17965;SDS011;9108;53.204;10.424;2023-09-19T13:05:46;8.48;;;1.90;;
17965;SDS011;9108;53.204;10.424;2023-09-19T13:11:05;9.27;;;2.10;;
17965;SDS011;9108;53.204;10.424;2023-09-19T13:13:34;7.90;;;1.92;;
17965;SDS011;9108;53.204;10.424;2023-09-19T13:16:03;8.18;;;2.00;;
17965;SDS011;9108;53.204;10.424;2023-09-19T13:18:47;9.87;;;1.90;;
17965;SDS011;9108;53.204;10.424;2023-09-19T13:21:16;9.00;;;1.90;;
17965;SDS011;9108;53.204;10.424;2023-09-19T13:23:50;11.33;;;2.17;;
17965;SDS011;9108;53.204;10.424;2023-09-19T13:26:17;8.75;;;1.92;;
17965;SDS011;9108;53.204;10.424;2023-09-19T13:28:44;8.97;;;2.07;;
17965;SDS011;9108;53.204;10.424;2023-09-19T13:31:14;8.32;;;2.03;;
17965;SDS011;9108;53.204;10.424;2023-09-19T13:33:44;7.27;;;1.90;;
17965;SDS011;9108;53.204;10.424;2023-09-19T13:36:12;9.20;;;1.85;;
17965;SDS011;9108;53.204;10.424;2023-09-19T13:38:40;8.98;;;2.03;;
17965;SDS011;9108;53.204;10.424;2023-09-19T13:41:08;11.05;;;2.30;;
17965;SDS011;9108;53.204;10.424;2023-09-19T13:43:35;10.15;;;2.20;;
17965;SDS011;9108;53.204;10.424;2023-09-19T13:46:03;8.48;;;2.13;;
17965;SDS011;9108;53.204;10.424;2023-09-19T13:48:33;8.80;;;2.10;;
17965;SDS011;9108;53.204;10.424;2023-09-19T13:51:01;8.73;;;2.30;;
17965;SDS011;9108;53.204;10.424;2023-09-19T13:53:29;7.78;;;2.30;;
17965;SDS011;9108;53.204;10.424;2023-09-19T13:55:56;9.45;;;2.22;;
17965;SDS011;9108;53.204;10.424;2023-09-19T13:58:23;8.52;;;2.20;;
17965;SDS011;9108;53.204;10.424;2023-09-19T14:00:52;9.63;;;2.30;;
17965;SDS011;9108;53.204;10.424;2023-09-19T14:03:20;8.57;;;2.00;;
17965;SDS011;9108;53.204;10.424;2023-09-19T14:05:50;9.77;;;2.17;;
17965;SDS011;9108;53.204;10.424;2023-09-19T14:08:17;7.97;;;2.27;;
17965;SDS011;9108;53.204;10.424;2023-09-19T14:10:44;10.50;;;2.45;;
17965;SDS011;9108;53.204;10.424;2023-09-19T14:13:12;11.40;;;2.30;;
17965;SDS011;9108;53.204;10.424;2023-09-19T14:15:40;10.77;;;2.40;;
17965;SDS011;9108;53.204;10.424;2023-09-19T14:18:07;10.88;;;2.42;;
17965;SDS011;9108;53.204;10.424;2023-09-19T14:20:37;10.30;;;2.30;;
17965;SDS011;9108;53.204;10.424;2023-09-19T14:23:06;10.43;;;2.50;;
17965;SDS011;9108;53.204;10.424;2023-09-19T14:25:33;11.20;;;2.33;;
17965;SDS011;9108;53.204;10.424;2023-09-19T14:28:01;6.95;;;2.00;;
17965;SDS011;9108;53.204;10.424;2023-09-19T14:30:28;9.68;;;2.42;;
17965;SDS011;9108;53.204;10.424;2023-09-19T14:32:55;7.47;;;2.25;;
17965;SDS011;9108;53.204;10.424;2023-09-19T14:35:23;10.93;;;2.40;;
17965;SDS011;9108;53.204;10.424;2023-09-19T14:37:50;8.05;;;2.22;;
17965;SDS011;9108;53.204;10.424;2023-09-19T14:40:19;6.82;;;2.25;;
17965;SDS011;9108;53.204;10.424;2023-09-19T14:42:47;9.18;;;2.42;;
17965;SDS011;9108;53.204;10.424;2023-09-19T14:45:15;11.10;;;2.30;;
17965;SDS011;9108;53.204;10.424;2023-09-19T14:47:43;11.38;;;2.50;;
17965;SDS011;9108;53.204;10.424;2023-09-19T14:50:10;10.38;;;2.13;;
17965;SDS011;9108;53.204;10.424;2023-09-19T14:52:38;10.00;;;2.42;;
17965;SDS011;9108;53.204;10.424;2023-09-19T14:55:06;7.63;;;2.13;;
17965;SDS011;9108;53.204;10.424;2023-09-19T14:57:35;8.07;;;2.10;;
17965;SDS011;9108;53.204;10.424;2023-09-19T15:00:05;9.90;;;2.40;;
17965;SDS011;9108;53.204;10.424;2023-09-19T15:02:37;7.43;;;2.08;;
17965;SDS011;9108;53.204;10.424;2023-09-19T15:05:05;8.05;;;2.03;;
17965;SDS011;9108;53.204;10.424;2023-09-19T15:07:34;11.38;;;2.13;;
17965;SDS011;9108;53.204;10.424;2023-09-19T15:10:02;10.00;;;2.20;;
17965;SDS011;9108;53.204;10.424;2023-09-19T15:12:32;9.90;;;2.20;;